Terminal Aerodrome Forecast
Issued by NWS Melbourne, FL

Home | Current Version | Previous Version | Text Only | Print | Product List | Glossary On
Versions: 1 2 3 4 5 6 7 8 9 10 11 12 13 14 15 16 17
000
FTUS42 KMLB 140500
TAFDAB
TAF
KDAB 140535Z 1406/1506 00000KT P6SM SCT250
     FM141400 21004KT P6SM SCT030 SCT250
     FM141700 10007KT P6SM SCT030 BKN250
     FM142100 14006KT P6SM VCTS SCT030CB BKN120
     FM150200 21003KT P6SM FEW040 BKN120=

USA.gov is the U.S. government's official web portal to all federal, state and local government web resources and services.